Time;durP1;ratioP1;P1;durP2;ratioP2;P2;SDS_P1;SDS_P2;PMS_P1;PMS_P2;Temp;Humidity;BMP_temperature;BMP_pressure;BME280_temperature;BME280_humidity;BME280_pressure;Samples;Min_cycle;Max_cycle;Signal;HPM_P1;HPM_P2
2022/06/22 00:02:03;;;;;;;7.85;4.78;;;;;;;11.99;95.21;101232.56;5011308;28;20169;-45
2022/06/22 00:04:46;;;;;;;8.05;5.32;;;;;;;12.12;94.68;101231.16;5010929;28;20201;-43
2022/06/22 00:07:25;;;;;;;4.90;4.40;;;;;;;12.22;94.67;101228.13;5011517;28;20618;-44
2022/06/22 00:09:58;;;;;;;8.13;5.13;;;;;;;12.00;94.32;101217.31;5011144;28;20652;-45
2022/06/22 00:12:30;;;;;;;5.25;4.55;;;;;;;11.99;94.91;101229.88;5011234;28;20163;-46
2022/06/22 00:14:58;;;;;;;8.48;5.30;;;;;;;11.88;95.42;101230.28;5010600;28;20284;-46
2022/06/22 00:17:37;;;;;;;7.60;5.43;;;;;;;11.82;95.49;101229.59;5011343;28;20169;-47
2022/06/22 00:20:05;;;;;;;8.02;5.10;;;;;;;11.77;95.70;101231.59;5011014;28;20275;-44
2022/06/22 00:22:49;;;;;;;10.40;5.38;;;;;;;11.70;96.14;101236.31;5010761;28;20227;-45
2022/06/22 00:25:20;;;;;;;9.93;5.40;;;;;;;11.84;96.53;101233.97;5010614;28;20219;-44
2022/06/22 00:27:46;;;;;;;6.93;5.10;;;;;;;11.80;96.21;101237.69;5010783;28;20165;-48
2022/06/22 00:30:20;;;;;;;7.43;5.38;;;;;;;11.70;96.42;101241.69;5009714;28;20183;-49
2022/06/22 00:33:14;;;;;;;6.47;5.85;;;;;;;11.68;96.78;101239.03;5010531;28;20267;-49
2022/06/22 00:36:05;;;;;;;8.73;5.20;;;;;;;11.71;96.89;101244.28;5011035;28;20177;-50
2022/06/22 00:38:32;;;;;;;9.38;5.50;;;;;;;11.62;97.00;101249.13;5002121;28;20239;-51
2022/06/22 00:41:12;;;;;;;7.05;5.95;;;;;;;11.44;96.75;101247.97;5010887;28;20279;-48
2022/06/22 00:43:38;;;;;;;8.23;5.47;;;;;;;11.46;96.74;101251.47;5010215;28;20283;-48
2022/06/22 00:46:14;;;;;;;7.13;5.30;;;;;;;11.53;97.29;101245.81;5010335;28;20215;-51
2022/06/22 00:48:40;;;;;;;6.32;5.00;;;;;;;11.47;97.42;101238.00;5010393;28;20203;-50
2022/06/22 00:51:12;;;;;;;8.02;6.32;;;;;;;11.50;97.33;101245.94;5010431;28;20176;-48
2022/06/22 00:53:41;;;;;;;5.45;4.90;;;;;;;11.49;97.23;101238.81;5010288;28;20180;-53
2022/06/22 00:56:16;;;;;;;9.93;6.07;;;;;;;11.47;97.07;101243.34;5010381;28;20207;-49
2022/06/22 00:58:46;;;;;;;8.23;5.18;;;;;;;11.55;96.95;101232.38;5010713;28;20195;-51
2022/06/22 01:01:19;;;;;;;6.80;4.63;;;;;;;11.53;96.67;101232.41;5010396;28;20260;-53
2022/06/22 01:04:12;;;;;;;5.40;4.90;;;;;;;11.56;96.29;101231.41;5009239;28;20180;-49
2022/06/22 01:06:49;;;;;;;7.63;5.32;;;;;;;11.36;96.14;101225.91;5008665;28;20262;-49
2022/06/22 01:09:37;;;;;;;6.50;5.15;;;;;;;11.37;96.46;101233.00;5010170;28;20180;-50
2022/06/22 01:12:25;;;;;;;5.72;4.72;;;;;;;11.37;96.57;101233.00;5010483;28;20179;-51
2022/06/22 01:15:07;;;;;;;9.38;6.13;;;;;;;11.14;95.87;101250.78;5001282;28;20652;-49
2022/06/22 01:17:41;;;;;;;7.50;5.30;;;;;;;11.04;96.79;101246.63;5010448;28;20201;-49
2022/06/22 01:20:20;;;;;;;7.22;4.85;;;;;;;11.17;97.30;101252.47;5010379;28;20539;-53
2022/06/22 01:22:55;;;;;;;7.40;5.13;;;;;;;11.20;97.25;101261.28;5010003;28;20536;-49
2022/06/22 01:25:42;;;;;;;8.80;6.15;;;;;;;10.99;97.01;101257.50;5009922;28;20679;-51
2022/06/22 01:28:10;;;;;;;6.68;5.68;;;;;;;10.89;97.85;101273.03;5009828;28;20607;-48
2022/06/22 01:30:39;;;;;;;7.00;5.53;;;;;;;10.94;98.33;101267.53;5010233;28;20550;-48
2022/06/22 01:33:08;;;;;;;7.38;5.25;;;;;;;11.12;98.38;101263.34;5009316;28;20256;-53
2022/06/22 01:35:37;;;;;;;6.47;5.55;;;;;;;11.00;97.99;101256.59;5009871;28;20238;-50
2022/06/22 01:38:24;;;;;;;6.07;5.45;;;;;;;11.09;97.54;101250.06;5009946;28;20179;-50
2022/06/22 01:41:01;;;;;;;11.27;6.03;;;;;;;10.88;97.63;101247.13;5009962;28;20188;-51
2022/06/22 01:43:33;;;;;;;9.02;5.97;;;;;;;10.93;98.25;101241.63;5009635;28;20252;-52
2022/06/22 01:46:22;;;;;;;6.38;5.78;;;;;;;10.81;98.24;101234.00;5009501;28;20236;-49
2022/06/22 01:49:04;;;;;;;7.32;6.57;;;;;;;10.59;99.30;101247.22;5008399;28;20199;-52
2022/06/22 01:51:33;;;;;;;7.78;6.90;;;;;;;10.69;100.00;101241.53;5007867;28;20534;-52
2022/06/22 01:54:21;;;;;;;8.52;7.05;;;;;;;10.77;100.00;101248.44;5006772;28;20209;-51
2022/06/22 01:56:59;;;;;;;6.72;6.05;;;;;;;10.86;100.00;101238.28;5009684;28;20207;-48
2022/06/22 01:59:29;;;;;;;7.90;7.13;;;;;;;10.90;100.00;101242.59;5009638;28;20189;-50
2022/06/22 02:02:10;;;;;;;7.22;5.95;;;;;;;11.02;100.00;101241.34;5007654;28;20192;-48
2022/06/22 02:04:46;;;;;;;9.25;7.13;;;;;;;11.11;100.00;101243.72;5009210;28;20246;-50
2022/06/22 02:07:45;;;;;;;8.57;7.43;;;;;;;11.14;100.00;101238.22;5009781;28;20203;-50
2022/06/22 02:10:23;;;;;;;8.30;7.03;;;;;;;11.13;100.00;101249.03;5009277;28;20307;-50
2022/06/22 02:13:30;;;;;;;7.47;6.78;;;;;;;11.26;100.00;101249.47;5008830;28;20168;-50
2022/06/22 02:16:03;;;;;;;8.10;7.28;;;;;;;11.32;100.00;101234.03;4968416;28;20236;-49
2022/06/22 02:18:31;;;;;;;11.88;8.00;;;;;;;11.31;100.00;101228.75;4972238;28;20772;-49
2022/06/22 02:21:00;;;;;;;9.13;7.95;;;;;;;11.31;100.00;101234.97;4994162;28;20197;-50
2022/06/22 02:23:33;;;;;;;11.07;8.02;;;;;;;11.42;100.00;101237.28;5012655;28;20195;-51
2022/06/22 02:26:30;;;;;;;15.93;9.35;;;;;;;11.46;100.00;101236.25;5012882;28;20228;-50
2022/06/22 02:28:56;;;;;;;11.60;8.77;;;;;;;11.58;100.00;101226.88;5012039;28;20206;-51
2022/06/22 02:31:22;;;;;;;14.75;10.18;;;;;;;11.63;100.00;101230.28;5012837;28;20177;-49
2022/06/22 02:33:51;;;;;;;17.02;12.07;;;;;;;11.60;100.00;101224.16;5012106;28;20554;-49
2022/06/22 02:36:18;;;;;;;12.57;10.57;;;;;;;11.60;100.00;101226.81;5012557;28;20189;-49
2022/06/22 02:38:46;;;;;;;17.40;13.30;;;;;;;11.73;100.00;101228.13;5012647;28;20291;-48
2022/06/22 02:46:45;;;;;;;19.55;13.05;;;;;;;11.87;100.00;101233.88;5012664;28;20266;-50
2022/06/22 02:49:28;;;;;;;16.15;13.40;;;;;;;11.94;100.00;101231.88;5012294;28;20192;-49
2022/06/22 02:51:55;;;;;;;15.10;13.07;;;;;;;11.97;100.00;101226.38;5012434;28;20189;-50
2022/06/22 02:54:30;;;;;;;18.63;14.20;;;;;;;11.95;100.00;101241.66;5010819;28;20554;-50
2022/06/22 02:57:26;;;;;;;21.98;17.10;;;;;;;11.83;100.00;101242.97;5012283;28;20200;-49
2022/06/22 02:59:53;;;;;;;21.33;16.23;;;;;;;11.91;100.00;101240.91;5003292;28;20196;-50
2022/06/22 03:02:21;;;;;;;21.20;15.80;;;;;;;11.99;100.00;101234.38;5011804;28;20180;-51
2022/06/22 03:04:49;;;;;;;20.00;16.50;;;;;;;12.01;100.00;101235.19;5011885;28;20227;-51
2022/06/22 03:07:16;;;;;;;23.00;17.83;;;;;;;11.99;100.00;101229.00;5012174;28;20207;-53
2022/06/22 03:09:42;;;;;;;20.48;17.35;;;;;;;12.06;100.00;101228.72;5011039;28;20556;-50
2022/06/22 03:12:12;;;;;;;21.60;16.85;;;;;;;12.07;100.00;101225.09;5012014;28;20195;-50
2022/06/22 03:14:50;;;;;;;21.05;15.05;;;;;;;12.20;100.00;101217.44;5011780;28;20251;-49
2022/06/22 03:17:19;;;;;;;23.90;17.05;;;;;;;12.14;100.00;101215.00;5011950;28;20207;-50
2022/06/22 03:19:50;;;;;;;22.88;17.08;;;;;;;12.06;100.00;101225.16;5012004;28;20169;-49
2022/06/22 03:22:18;;;;;;;18.95;16.92;;;;;;;12.11;100.00;101220.47;5011959;28;20157;-49
2022/06/22 03:24:52;;;;;;;23.20;16.92;;;;;;;12.13;100.00;101232.94;5011805;28;20215;-49
2022/06/22 03:27:25;;;;;;;28.35;17.83;;;;;;;12.03;100.00;101233.34;5011521;28;20242;-51
2022/06/22 03:30:02;;;;;;;23.70;16.83;;;;;;;12.11;100.00;101233.91;5011002;28;20187;-51
2022/06/22 03:32:35;;;;;;;22.83;18.60;;;;;;;11.87;100.00;101228.50;5011858;28;20198;-51
2022/06/22 03:35:10;;;;;;;25.30;17.85;;;;;;;11.91;100.00;101240.91;5011445;28;20173;-48
2022/06/22 03:37:43;;;;;;;23.27;18.25;;;;;;;11.84;100.00;101238.47;5011550;28;20251;-48
2022/06/22 03:40:19;;;;;;;21.45;18.92;;;;;;;11.87;100.00;101238.34;5011765;28;20185;-46
2022/06/22 03:42:56;;;;;;;20.85;17.08;;;;;;;11.96;100.00;101240.75;5011623;28;20180;-46
2022/06/22 03:45:31;;;;;;;21.15;17.83;;;;;;;11.98;100.00;101233.47;5011545;28;20204;-46
2022/06/22 03:48:00;;;;;;;27.35;18.80;;;;;;;12.01;100.00;101243.25;5011490;28;20176;-47
2022/06/22 03:50:34;;;;;;;23.40;18.02;;;;;;;12.04;100.00;101251.19;5011757;28;20173;-47
2022/06/22 03:53:12;;;;;;;20.98;17.67;;;;;;;12.04;100.00;101243.13;5009825;28;20659;-47
2022/06/22 03:55:43;;;;;;;23.23;17.02;;;;;;;12.12;100.00;101241.03;5011142;28;20542;-48
2022/06/22 03:58:11;;;;;;;28.38;18.90;;;;;;;12.07;100.00;101245.69;5011706;28;20192;-47
2022/06/22 04:00:39;;;;;;;25.30;19.10;;;;;;;12.04;100.00;101241.31;5010151;28;20192;-46
2022/06/22 04:03:06;;;;;;;19.58;16.73;;;;;;;12.18;100.00;101239.91;5010713;28;20188;-46
2022/06/22 04:05:46;;;;;;;24.00;18.67;;;;;;;12.12;100.00;101243.72;5011215;28;20682;-46
2022/06/22 04:08:35;;;;;;;25.63;17.95;;;;;;;12.24;100.00;101243.22;5011418;28;20521;-47
2022/06/22 04:11:07;;;;;;;21.65;17.48;;;;;;;12.27;100.00;101243.13;5010707;28;20210;-47
2022/06/22 04:13:52;;;;;;;23.27;18.08;;;;;;;12.20;100.00;101240.72;5010898;28;20545;-46
2022/06/22 04:16:22;;;;;;;26.15;17.98;;;;;;;12.25;100.00;101239.63;5009737;28;20200;-46
2022/06/22 04:18:58;;;;;;;21.85;17.75;;;;;;;12.24;100.00;101243.22;5010930;28;20226;-46
2022/06/22 04:21:30;;;;;;;20.60;17.00;;;;;;;12.32;100.00;101240.28;5010917;28;20607;-47
2022/06/22 04:24:02;;;;;;;19.50;16.30;;;;;;;12.35;100.00;101243.72;5010226;28;20526;-46
2022/06/22 04:26:50;;;;;;;19.73;16.15;;;;;;;12.35;100.00;101253.56;5010634;28;20204;-46
2022/06/22 04:29:28;;;;;;;22.38;16.15;;;;;;;12.36;100.00;101261.59;5011281;28;20223;-45
2022/06/22 04:32:03;;;;;;;22.50;15.63;;;;;;;12.39;100.00;101257.91;5010193;28;20182;-45
2022/06/22 04:34:41;;;;;;;21.65;16.27;;;;;;;12.36;100.00;101255.34;5010238;28;20176;-46
2022/06/22 04:37:19;;;;;;;21.83;16.00;;;;;;;12.40;100.00;101251.59;5011119;28;20203;-48
2022/06/22 04:39:51;;;;;;;24.88;16.88;;;;;;;12.46;100.00;101253.16;5010085;28;20167;-46
2022/06/22 04:42:17;;;;;;;22.63;17.15;;;;;;;12.48;100.00;101254.84;5010452;28;20185;-45
2022/06/22 04:44:49;;;;;;;21.90;16.23;;;;;;;12.56;100.00;101255.41;5010167;28;20569;-46
2022/06/22 04:47:24;;;;;;;25.77;17.42;;;;;;;12.57;100.00;101256.28;5003438;28;20200;-47
2022/06/22 04:50:01;;;;;;;24.10;17.73;;;;;;;12.50;100.00;101244.91;5008838;28;20192;-45
2022/06/22 04:52:31;;;;;;;23.80;18.35;;;;;;;12.55;100.00;101258.16;5009572;28;20184;-45
2022/06/22 04:55:00;;;;;;;24.92;17.08;;;;;;;12.57;100.00;101262.56;5009584;28;20636;-43
2022/06/22 04:57:26;;;;;;;23.98;17.92;;;;;;;12.54;100.00;101253.75;5010249;28;20180;-46
2022/06/22 04:59:52;;;;;;;30.40;18.50;;;;;;;12.46;100.00;101251.38;5010397;28;20539;-47
2022/06/22 05:02:22;;;;;;;26.42;19.13;;;;;;;12.25;100.00;101260.25;5010259;28;20175;-47
2022/06/22 05:04:53;;;;;;;23.02;17.52;;;;;;;12.38;100.00;101260.66;5008514;28;20204;-47
2022/06/22 05:07:40;;;;;;;22.88;17.88;;;;;;;12.42;100.00;101255.09;5009946;28;20703;-47
2022/06/22 05:10:17;;;;;;;29.17;17.63;;;;;;;12.60;100.00;101263.38;5010433;28;20175;-47
2022/06/22 05:12:54;;;;;;;25.15;18.55;;;;;;;12.57;100.00;101256.28;5010254;28;20625;-46
2022/06/22 05:15:25;;;;;;;22.45;17.35;;;;;;;12.50;100.00;101260.16;5009709;28;20188;-46
2022/06/22 05:17:50;;;;;;;26.13;18.83;;;;;;;12.50;100.00;101262.84;5009890;28;20177;-46
2022/06/22 05:20:24;;;;;;;27.23;19.10;;;;;;;12.62;100.00;101254.31;5009641;28;20168;-47
2022/06/22 05:22:52;;;;;;;25.50;17.33;;;;;;;12.67;100.00;101260.38;5010209;28;20223;-46
2022/06/22 05:25:18;;;;;;;21.27;17.50;;;;;;;12.78;100.00;101252.75;5009554;28;20639;-47
2022/06/22 05:27:55;;;;;;;26.90;16.55;;;;;;;12.74;100.00;101252.94;5009893;28;20175;-47
2022/06/22 05:30:21;;;;;;;25.98;16.88;;;;;;;12.82;99.84;101255.31;5009765;28;20180;-46
2022/06/22 05:32:59;;;;;;;22.20;17.00;;;;;;;12.87;99.14;101258.69;5009895;28;20173;-46
2022/06/22 05:35:31;;;;;;;25.13;17.45;;;;;;;12.86;99.36;101265.03;5009752;28;20201;-46
2022/06/22 05:37:58;;;;;;;20.10;15.52;;;;;;;12.88;99.13;101260.44;5009191;28;20725;-47
2022/06/22 05:40:26;;;;;;;23.15;16.02;;;;;;;12.96;98.46;101253.78;5009797;28;20208;-46
2022/06/22 05:42:52;;;;;;;22.65;16.65;;;;;;;12.90;99.09;101259.44;5009555;28;20184;-45
2022/06/22 05:45:24;;;;;;;21.05;16.20;;;;;;;13.09;99.34;101256.00;5009226;28;20278;-47
2022/06/22 05:47:51;;;;;;;20.85;16.05;;;;;;;13.10;98.21;101253.25;5009497;28;20184;-47
2022/06/22 05:50:38;;;;;;;19.92;15.05;;;;;;;13.06;98.45;101259.69;5006709;28;20185;-46
2022/06/22 05:53:16;;;;;;;18.35;14.10;;;;;;;13.26;98.21;101258.84;5028069;28;20255;-45
2022/06/22 05:56:08;;;;;;;21.45;16.08;;;;;;;13.16;97.95;101265.53;4997767;28;20251;-46
2022/06/22 05:59:14;;;;;;;19.03;13.77;;;;;;;13.37;97.82;101278.13;5012871;28;20441;-46
2022/06/22 06:02:04;;;;;;;17.10;13.63;;;;;;;13.25;97.23;101275.03;5016477;28;20431;-44
2022/06/22 06:04:39;;;;;;;15.43;13.70;;;;;;;13.34;96.86;101272.03;5013282;28;20181;-45
2022/06/22 06:07:27;;;;;;;18.33;13.23;;;;;;;13.40;96.86;101255.59;5013343;28;20207;-46
2022/06/22 06:09:53;;;;;;;25.58;14.48;;;;;;;13.34;96.41;101253.19;5006867;28;20459;-45
2022/06/22 06:12:37;;;;;;;24.70;14.15;;;;;;;13.41;96.54;101270.81;5013217;28;20181;-46
2022/06/22 06:15:04;;;;;;;20.48;14.38;;;;;;;13.70;95.73;101274.91;5012057;28;20176;-45
2022/06/22 06:17:32;;;;;;;17.23;13.65;;;;;;;13.59;95.51;101269.13;5013482;28;20330;-47
2022/06/22 06:19:59;;;;;;;18.98;14.00;;;;;;;13.89;95.00;101260.66;5013668;28;20184;-48
2022/06/22 06:22:28;;;;;;;17.95;12.55;;;;;;;14.00;93.72;101263.72;5011789;28;20165;-47
2022/06/22 06:27:46;;;;;;;16.73;12.68;;;;;;;14.05;93.46;101271.59;5013371;28;20581;-48
2022/06/22 06:30:29;;;;;;;15.63;11.40;;;;;;;14.30;92.85;101268.63;5011264;28;20172;-42
2022/06/22 06:33:01;;;;;;;17.73;12.18;;;;;;;14.17;91.61;101271.91;5012600;28;20520;-43
2022/06/22 06:35:35;;;;;;;14.13;10.35;;;;;;;14.60;91.16;101266.31;5011191;28;20243;-43
2022/06/22 06:38:16;;;;;;;14.93;11.38;;;;;;;14.46;89.72;101275.06;5012606;28;20596;-43
2022/06/22 06:40:45;;;;;;;23.92;11.85;;;;;;;14.53;89.92;101270.25;5012441;28;20528;-43
2022/06/22 06:43:13;;;;;;;20.80;11.25;;;;;;;14.61;89.92;101266.25;5010931;28;20204;-42
2022/06/22 06:45:40;;;;;;;18.05;11.25;;;;;;;14.90;89.85;101268.50;5011189;28;20319;-41
2022/06/22 06:48:13;;;;;;;17.35;10.95;;;;;;;14.66;88.66;101267.88;5010821;28;20180;-43
2022/06/22 06:50:45;;;;;;;20.23;10.90;;;;;;;14.55;89.08;101271.09;5010569;28;20210;-42
2022/06/22 06:53:46;;;;;;;15.90;10.93;;;;;;;14.22;89.69;101277.94;5012188;28;20566;-40
2022/06/22 06:56:27;;;;;;;15.15;10.20;;;;;;;14.40;90.54;101268.13;5010725;28;20220;-42
2022/06/22 06:59:04;;;;;;;18.48;11.05;;;;;;;14.57;90.47;101274.59;5012533;28;20556;-43
2022/06/22 07:01:33;;;;;;;15.65;10.30;;;;;;;14.53;89.23;101283.72;5011751;28;20410;-44
2022/06/22 07:04:13;;;;;;;17.25;9.57;;;;;;;14.57;89.32;101278.16;5010780;28;20164;-43
2022/06/22 07:06:39;;;;;;;16.83;9.98;;;;;;;14.97;87.86;101270.81;5012069;28;20206;-43
2022/06/22 07:09:30;;;;;;;15.57;9.93;;;;;;;15.20;86.36;101269.66;5012360;28;20600;-45
2022/06/22 07:12:06;;;;;;;17.95;9.60;;;;;;;15.17;86.06;101271.63;5012150;28;20177;-42
2022/06/22 07:14:37;;;;;;;16.95;8.40;;;;;;;15.22;85.94;101272.28;5011664;28;20396;-41
2022/06/22 07:17:09;;;;;;;19.33;9.32;;;;;;;15.04;86.94;101264.16;5003008;28;20196;-42
2022/06/22 07:19:54;;;;;;;13.55;9.20;;;;;;;15.30;87.21;101266.50;5012126;28;20259;-42
2022/06/22 07:22:27;;;;;;;12.90;8.13;;;;;;;15.64;85.83;101265.63;5009125;28;20192;-42
2022/06/22 07:25:24;;;;;;;16.38;9.00;;;;;;;15.52;85.54;101258.16;5008542;28;20223;-42
2022/06/22 07:27:59;;;;;;;12.88;8.48;;;;;;;15.40;85.79;101262.38;5003357;28;20445;-43
2022/06/22 07:30:33;;;;;;;11.00;7.15;;;;;;;15.50;85.19;101257.34;5011724;28;20164;-42
2022/06/22 07:33:13;;;;;;;14.35;7.78;;;;;;;15.36;85.13;101263.47;5010591;28;20188;-42
2022/06/22 07:35:53;;;;;;;10.77;7.05;;;;;;;15.51;85.34;101261.81;5011235;28;20216;-41
2022/06/22 07:38:56;;;;;;;14.57;8.10;;;;;;;15.70;85.46;101267.13;5011828;28;20267;-43
2022/06/22 07:41:24;;;;;;;11.48;6.63;;;;;;;15.83;84.48;101265.53;5005745;28;20190;-41
2022/06/22 07:43:56;;;;;;;14.10;6.53;;;;;;;15.75;84.02;101255.16;5010857;28;20325;-42
2022/06/22 07:46:34;;;;;;;15.02;7.32;;;;;;;15.56;84.05;101259.75;5011416;28;20208;-41
2022/06/22 07:49:07;;;;;;;13.63;7.47;;;;;;;15.55;85.43;101264.28;5010887;28;20212;-41
2022/06/22 07:51:37;;;;;;;17.17;7.68;;;;;;;15.93;84.41;101271.34;5011360;28;20188;-43
2022/06/22 07:54:14;;;;;;;11.65;6.65;;;;;;;15.83;83.97;101263.72;5004578;28;20199;-41
2022/06/22 07:56:48;;;;;;;11.10;5.80;;;;;;;16.86;82.60;101257.19;5010665;28;20223;-40
2022/06/22 07:59:23;;;;;;;11.35;6.57;;;;;;;16.85;79.76;101247.31;5009204;28;20180;-41
2022/06/22 08:01:53;;;;;;;15.80;6.78;;;;;;;17.17;78.62;101250.84;5008033;28;20180;-44
2022/06/22 08:04:36;;;;;;;14.82;7.47;;;;;;;17.18;78.24;101246.31;5010746;28;20283;-42
2022/06/22 08:07:08;;;;;;;13.40;6.70;;;;;;;17.60;77.23;101242.84;5010045;28;20271;-42
2022/06/22 08:09:43;;;;;;;11.90;6.35;;;;;;;17.90;75.49;101245.53;5010894;28;20219;-42
2022/06/22 08:12:47;;;;;;;13.68;6.55;;;;;;;17.73;74.75;101255.63;5010949;28;20235;-42
2022/06/22 08:15:16;;;;;;;10.13;5.55;;;;;;;17.77;74.40;101251.78;5010052;28;20176;-42
2022/06/22 08:17:46;;;;;;;9.63;4.90;;;;;;;18.43;73.94;101245.81;5007593;28;20188;-42
2022/06/22 08:20:17;;;;;;;11.88;5.28;;;;;;;18.10;73.14;101244.31;5010362;28;20214;-42
2022/06/22 08:22:45;;;;;;;10.82;5.22;;;;;;;17.88;74.07;101238.47;5002599;28;20189;-41
2022/06/22 08:25:13;;;;;;;11.82;5.38;;;;;;;18.14;73.23;101238.66;5010009;28;20196;-43
2022/06/22 08:27:39;;;;;;;10.43;4.80;;;;;;;18.22;73.28;101236.34;5010636;28;20202;-42
2022/06/22 08:30:06;;;;;;;11.98;5.32;;;;;;;18.64;72.33;101251.69;5010472;28;20177;-41
2022/06/22 08:32:36;;;;;;;14.15;5.30;;;;;;;18.62;71.49;101247.31;5009707;28;20185;-42
2022/06/22 08:35:18;;;;;;;8.93;4.57;;;;;;;18.35;71.69;101253.56;5010130;28;20169;-43
2022/06/22 08:38:07;;;;;;;11.68;5.65;;;;;;;19.14;72.27;101249.31;5010491;28;20169;-42
2022/06/22 08:41:18;;;;;;;10.75;5.15;;;;;;;18.75;70.29;101259.13;5009505;28;20165;-41
2022/06/22 08:44:01;;;;;;;8.88;4.82;;;;;;;18.88;69.88;101257.38;5009871;28;20643;-43
2022/06/22 08:46:36;;;;;;;9.07;5.00;;;;;;;18.61;71.42;101265.47;5010336;28;20216;-42
2022/06/22 08:49:25;;;;;;;13.48;4.78;;;;;;;18.57;70.97;101258.50;5010151;28;20192;-42
2022/06/22 08:52:33;;;;;;;7.38;4.60;;;;;;;19.13;71.00;101267.47;5002350;28;20199;-42
2022/06/22 08:55:19;;;;;;;7.25;4.20;;;;;;;19.33;69.78;101252.53;4978641;28;20540;-42
2022/06/22 08:58:05;;;;;;;9.80;4.88;;;;;;;18.89;70.58;101266.38;5010377;28;20177;-43
2022/06/22 09:00:54;;;;;;;8.73;4.70;;;;;;;18.83;71.65;101256.81;5010162;28;20270;-46
2022/06/22 09:03:46;;;;;;;9.25;4.63;;;;;;;18.70;72.44;101254.00;5010251;28;20284;-46
2022/06/22 09:06:11;;;;;;;14.93;5.00;;;;;;;17.86;73.38;101253.94;5010181;28;20211;-47
2022/06/22 09:09:14;;;;;;;12.00;4.70;;;;;;;18.36;74.07;101263.44;5007301;28;20279;-47
2022/06/22 09:12:07;;;;;;;15.50;5.22;;;;;;;18.16;74.06;101264.72;4990226;28;20212;-46
2022/06/22 09:15:06;;;;;;;9.65;4.65;;;;;;;18.31;72.79;101258.31;4992536;28;20565;-45
2022/06/22 09:17:42;;;;;;;8.02;4.90;;;;;;;18.35;73.67;101259.00;5009773;28;20214;-46
2022/06/22 09:20:36;;;;;;;8.50;5.00;;;;;;;18.24;73.37;101264.25;5009341;28;20617;-45
2022/06/22 09:23:11;;;;;;;8.63;4.28;;;;;;;18.06;74.16;101263.53;5001417;28;20547;-46
2022/06/22 09:25:49;;;;;;;8.57;4.38;;;;;;;18.30;75.00;101274.69;5003342;28;20208;-47
2022/06/22 09:28:33;;;;;;;6.45;4.20;;;;;;;18.38;74.25;101263.34;5003546;28;20188;-46
2022/06/22 09:31:26;;;;;;;11.15;3.85;;;;;;;18.20;74.63;101268.13;5009951;28;20215;-46
2022/06/22 09:34:29;;;;;;;10.20;3.75;;;;;;;18.37;74.62;101276.06;5009827;28;20260;-45
2022/06/22 09:37:16;;;;;;;6.85;3.20;;;;;;;18.57;74.16;101265.75;5009883;28;20208;-47
2022/06/22 09:39:47;;;;;;;8.68;3.60;;;;;;;18.51;74.07;101262.44;5009733;28;20256;-46
2022/06/22 09:42:30;;;;;;;6.28;3.33;;;;;;;18.66;73.15;101267.88;5009801;28;20179;-46
2022/06/22 09:44:56;;;;;;;9.13;3.35;;;;;;;18.47;73.14;101260.91;5009306;28;20260;-46
2022/06/22 09:47:37;;;;;;;11.07;4.35;;;;;;;18.17;75.18;101266.47;5011310;28;20629;-48
2022/06/22 09:50:28;;;;;;;7.72;3.75;;;;;;;18.20;74.50;101262.69;5009889;28;20223;-45
2022/06/22 09:52:58;;;;;;;8.65;3.85;;;;;;;18.38;75.01;101266.94;5009320;28;20255;-46
2022/06/22 09:59:18;;;;;;;8.63;3.67;;;;;;;18.30;75.39;101267.44;5009314;28;20188;-45
2022/06/22 10:02:20;;;;;;;6.05;3.05;;;;;;;18.64;73.88;101264.38;4981879;28;20192;-45
2022/06/22 10:05:04;;;;;;;7.38;3.50;;;;;;;17.86;74.92;101268.41;5009089;28;20292;-46
2022/06/22 10:07:36;;;;;;;6.93;3.30;;;;;;;18.33;74.14;101259.09;5009561;28;20223;-46
2022/06/22 10:10:07;;;;;;;5.88;3.50;;;;;;;18.06;75.34;101258.13;5009197;28;20243;-45
2022/06/22 10:13:09;;;;;;;7.70;3.15;;;;;;;18.23;75.46;101257.91;5009407;28;20220;-45
2022/06/22 10:16:06;;;;;;;6.45;2.67;;;;;;;18.04;75.64;101260.09;5024812;28;20691;-45
2022/06/22 10:18:57;;;;;;;6.35;2.97;;;;;;;18.02;76.35;101268.31;5009354;28;20298;-47
2022/06/22 10:21:50;;;;;;;7.55;3.55;;;;;;;18.08;75.69;101267.94;5009817;28;20191;-46
2022/06/22 10:24:35;;;;;;;5.50;3.13;;;;;;;18.25;75.48;101263.25;5009137;28;20235;-45
2022/06/22 10:27:19;;;;;;;7.40;3.10;;;;;;;18.19;75.37;101269.97;5009500;28;20749;-45
2022/06/22 10:30:16;;;;;;;11.80;3.10;;;;;;;17.99;76.42;101273.91;5009213;28;20881;-46
2022/06/22 10:33:06;;;;;;;6.05;3.22;;;;;;;17.97;77.53;101269.53;5009353;28;20166;-47
2022/06/22 10:36:09;;;;;;;7.85;3.30;;;;;;;18.01;76.96;101276.53;5009350;28;20275;-43
2022/06/22 10:39:02;;;;;;;6.13;2.53;;;;;;;18.03;77.95;101278.16;5012404;28;20184;-47
2022/06/22 10:47:59;;;;;;;5.70;2.85;;;;;;;18.10;77.80;101279.56;5015275;28;20188;-46
2022/06/22 10:50:44;;;;;;;7.03;3.40;;;;;;;18.33;76.98;101283.50;5032538;28;20172;-45
2022/06/22 10:53:32;;;;;;;8.52;3.35;;;;;;;18.27;76.53;101285.72;5031961;28;20200;-44
2022/06/22 10:56:32;;;;;;;5.15;2.95;;;;;;;18.48;76.47;101286.22;5030768;28;20188;-45
2022/06/22 10:59:18;;;;;;;10.40;3.97;;;;;;;18.22;76.33;101283.31;5032381;28;20639;-47
2022/06/22 11:02:15;;;;;;;7.13;3.42;;;;;;;18.09;76.92;101291.34;5031815;28;20510;-46
2022/06/22 11:05:09;;;;;;;6.20;2.40;;;;;;;18.04;77.34;101293.50;5031821;28;20161;-46
2022/06/22 11:07:54;;;;;;;8.38;2.55;;;;;;;18.16;77.11;101288.25;5032080;28;20169;-46
2022/06/22 11:10:22;;;;;;;8.90;3.08;;;;;;;17.97;77.01;101299.38;5032347;28;20260;-45
2022/06/22 11:13:06;;;;;;;7.13;2.85;;;;;;;17.87;77.07;101288.22;5032036;28;20187;-47
2022/06/22 11:15:41;;;;;;;4.03;2.53;;;;;;;18.09;77.73;101279.63;5032116;28;20330;-47
2022/06/22 11:18:12;;;;;;;9.13;2.85;;;;;;;18.03;77.73;101277.31;5032266;28;20229;-46
2022/06/22 11:21:07;;;;;;;6.07;2.95;;;;;;;17.88;77.77;101281.84;5031709;28;20169;-45
2022/06/22 11:23:33;;;;;;;7.95;3.42;;;;;;;17.89;77.73;101284.47;5031596;28;20232;-46
2022/06/22 11:32:18;;;;;;;4.70;2.42;;;;;;;17.94;78.40;101284.16;5031652;28;20549;-44
2022/06/22 11:35:21;;;;;;;4.95;2.47;;;;;;;18.18;77.88;101284.47;5031352;28;20217;-43
2022/06/22 11:38:16;;;;;;;7.72;3.00;;;;;;;18.06;79.14;101288.84;5031300;28;20164;-45
2022/06/22 11:40:55;;;;;;;6.00;3.05;;;;;;;18.06;77.89;101288.84;5031783;28;20204;-46
2022/06/22 11:43:55;;;;;;;7.07;2.70;;;;;;;18.35;78.40;101285.28;5031019;28;20191;-47
2022/06/22 11:46:45;;;;;;;3.20;2.47;;;;;;;18.32;78.66;101283.59;5030053;28;20266;-49
2022/06/22 11:49:32;;;;;;;5.47;2.58;;;;;;;18.62;77.07;101282.59;5014844;28;20184;-49
2022/06/22 11:52:20;;;;;;;5.30;2.60;;;;;;;18.66;76.86;101274.16;5026616;28;20200;-46
2022/06/22 11:55:17;;;;;;;6.05;2.80;;;;;;;18.45;75.43;101267.41;5010939;28;20160;-47
2022/06/22 11:58:19;;;;;;;4.53;2.45;;;;;;;19.17;74.17;101262.69;5011386;28;20835;-48
2022/06/22 12:00:54;;;;;;;4.63;2.33;;;;;;;19.74;73.82;101247.94;5010972;28;20714;-54
2022/06/22 12:03:53;;;;;;;4.97;2.60;;;;;;;19.12;73.07;101256.69;5010418;28;20600;-48
2022/06/22 12:06:30;;;;;;;4.68;2.50;;;;;;;19.73;72.73;101251.66;5010900;28;20295;-47
2022/06/22 12:09:41;;;;;;;8.20;2.95;;;;;;;19.83;71.88;101250.03;5010852;28;20172;-48
2022/06/22 12:12:06;;;;;;;6.10;2.40;;;;;;;19.68;71.76;101243.78;5007325;28;20279;-47
2022/06/22 12:15:10;;;;;;;6.43;2.70;;;;;;;19.65;72.57;101244.00;5009805;28;20172;-48
2022/06/22 12:17:45;;;;;;;3.17;2.03;;;;;;;19.11;74.97;101250.41;5008580;28;20192;-49
2022/06/22 12:20:16;;;;;;;4.75;1.95;;;;;;;19.14;74.48;101258.34;5010611;28;20168;-48
2022/06/22 12:23:10;;;;;;;4.65;2.38;;;;;;;19.84;74.38;101240.03;5010835;28;20169;-52
2022/06/22 12:25:42;;;;;;;8.30;2.30;;;;;;;20.01;72.18;101238.84;5010299;28;20213;-52
2022/06/22 12:28:41;;;;;;;4.38;1.98;;;;;;;20.08;71.82;101241.00;5009479;28;20197;-47
2022/06/22 12:31:10;;;;;;;4.25;1.92;;;;;;;19.94;72.15;101241.09;5010731;28;20570;-49